createdAt,value
2023-01-18T00:00:39.443Z,7.79
2023-01-18T00:03:13.977Z,7.82
2023-01-18T00:05:41.611Z,8.06
2023-01-18T00:08:12.828Z,8.08
2023-01-18T00:10:40.347Z,7.46
2023-01-18T00:13:07.247Z,7.92
2023-01-18T00:15:37.200Z,7.87
2023-01-18T00:18:04.319Z,7.32
2023-01-18T00:20:31.895Z,7.84
2023-01-18T00:23:02.047Z,7.72
2023-01-18T00:25:30.205Z,7.71
2023-01-18T00:27:57.144Z,7.68
2023-01-18T00:30:26.560Z,7.69
2023-01-18T00:32:55.759Z,7.62
2023-01-18T00:35:22.789Z,7.65
2023-01-18T00:37:51.646Z,7.59
2023-01-18T00:40:22.352Z,7.65
2023-01-18T00:43:07.588Z,7.61
2023-01-18T00:45:34.334Z,7.50
2023-01-18T00:48:02.754Z,7.64
2023-01-18T00:50:29.861Z,7.54
2023-01-18T00:52:58.622Z,7.38
2023-01-18T00:55:26.595Z,7.55
2023-01-18T00:57:53.810Z,7.52
2023-01-18T01:00:26.803Z,7.49
2023-01-18T01:02:53.954Z,7.55
2023-01-18T01:05:42.709Z,7.50
2023-01-18T01:08:17.362Z,7.09
2023-01-18T01:10:49.423Z,7.55
2023-01-18T01:13:37.710Z,7.22
2023-01-18T01:16:28.128Z,7.48
2023-01-18T01:19:14.446Z,7.39
2023-01-18T01:22:00.536Z,7.12
2023-01-18T01:24:45.739Z,6.43
2023-01-18T01:27:12.856Z,6.72
2023-01-18T01:29:39.788Z,7.11
2023-01-18T01:32:06.465Z,7.12
2023-01-18T01:34:33.255Z,7.09
2023-01-18T01:36:59.953Z,6.83
2023-01-18T01:39:26.577Z,6.96
2023-01-18T01:41:53.198Z,6.98
2023-01-18T01:44:20.064Z,7.01
2023-01-18T01:47:00.282Z,6.93
2023-01-18T01:49:35.738Z,6.91
2023-01-18T01:52:15.406Z,6.67
2023-01-18T01:54:44.906Z,6.88
2023-01-18T01:57:31.624Z,6.71
2023-01-18T02:00:03.363Z,6.71
2023-01-18T02:02:31.379Z,6.07
2023-01-18T02:04:59.858Z,6.27
2023-01-18T02:07:28.846Z,6.88
2023-01-18T02:09:57.327Z,6.78
2023-01-18T02:12:25.993Z,6.38
2023-01-18T02:14:53.988Z,6.61
2023-01-18T02:18:02.331Z,6.73
2023-01-18T02:20:46.820Z,6.75
2023-01-18T02:23:25.125Z,6.80
2023-01-18T02:26:03.504Z,6.82
2023-01-18T02:28:37.765Z,6.42
2023-01-18T02:31:28.711Z,6.96
2023-01-18T02:34:13.445Z,7.00
2023-01-18T02:36:51.432Z,6.93
2023-01-18T02:39:47.483Z,6.81
2023-01-18T02:42:41.721Z,6.81
2023-01-18T02:45:52.994Z,7.13
2023-01-18T02:48:22.581Z,7.08
2023-01-18T02:50:49.573Z,7.35
2023-01-18T02:53:16.239Z,7.17
2023-01-18T02:55:59.366Z,7.44
2023-01-18T02:58:33.966Z,7.45
2023-01-18T03:01:26.264Z,7.40
2023-01-18T03:03:57.486Z,7.42
2023-01-18T03:06:28.082Z,7.28
2023-01-18T03:08:56.833Z,7.25
2023-01-18T03:11:42.038Z,7.26
2023-01-18T03:14:17.410Z,7.23
2023-01-18T03:16:59.769Z,7.24
2023-01-18T03:20:05.708Z,7.27
2023-01-18T03:23:31.624Z,7.34
2023-01-18T03:26:00.470Z,7.22
2023-01-18T03:28:53.781Z,6.71
2023-01-18T03:31:52.081Z,6.84
2023-01-18T03:34:57.160Z,5.75
2023-01-18T03:37:39.844Z,6.90
2023-01-18T03:40:17.193Z,6.90
2023-01-18T03:43:02.003Z,6.83
2023-01-18T03:45:42.321Z,6.04
2023-01-18T03:48:10.385Z,6.31
2023-01-18T03:51:25.949Z,6.38
2023-01-18T03:54:02.960Z,6.37
2023-01-18T03:56:38.204Z,6.43
2023-01-18T03:59:05.716Z,5.81
2023-01-18T04:01:32.617Z,5.83
2023-01-18T04:03:59.299Z,5.89
2023-01-18T04:06:26.699Z,6.29
2023-01-18T04:08:53.442Z,5.84
2023-01-18T04:11:20.136Z,6.40
2023-01-18T04:13:46.730Z,6.22
2023-01-18T04:16:13.579Z,6.38
2023-01-18T04:18:40.309Z,6.31
2023-01-18T04:21:06.987Z,6.45
2023-01-18T04:23:33.643Z,6.46
2023-01-18T04:26:00.298Z,6.40
2023-01-18T04:28:26.876Z,6.35
2023-01-18T04:30:57.217Z,6.56
2023-01-18T04:33:26.802Z,6.48
2023-01-18T04:35:54.361Z,6.02
2023-01-18T04:38:21.820Z,6.22
2023-01-18T04:40:48.547Z,6.66
2023-01-18T04:43:15.104Z,6.63
2023-01-18T04:45:41.659Z,6.03
2023-01-18T04:48:08.259Z,6.48
2023-01-18T04:50:34.946Z,6.42
2023-01-18T04:53:01.762Z,6.26
2023-01-18T04:55:28.458Z,6.21
2023-01-18T04:57:57.122Z,6.30
2023-01-18T05:00:24.266Z,6.20
2023-01-18T05:02:51.335Z,5.94
2023-01-18T05:05:18.035Z,6.12
2023-01-18T05:07:44.673Z,6.11
2023-01-18T05:10:11.579Z,5.99
2023-01-18T05:12:38.250Z,6.09
2023-01-18T05:15:05.942Z,5.98
2023-01-18T05:17:34.805Z,6.04
2023-01-18T05:20:02.556Z,5.46
2023-01-18T05:22:29.259Z,5.52
2023-01-18T05:24:55.919Z,5.62
2023-01-18T05:27:22.564Z,5.68
2023-01-18T05:29:49.236Z,5.77
2023-01-18T05:32:15.977Z,5.71
2023-01-18T05:34:43.673Z,5.73
2023-01-18T05:37:10.904Z,5.53
2023-01-18T05:39:37.742Z,5.80
2023-01-18T05:42:05.687Z,5.80
2023-01-18T05:44:32.339Z,5.83
2023-01-18T05:46:59.427Z,5.54
2023-01-18T05:49:26.102Z,5.48
2023-01-18T05:51:52.779Z,5.75
2023-01-18T05:54:20.076Z,5.81
2023-01-18T05:56:46.732Z,5.69
2023-01-18T05:59:15.627Z,5.60
2023-01-18T06:01:42.754Z,5.38
2023-01-18T06:04:09.463Z,5.33
2023-01-18T06:06:36.066Z,5.68
2023-01-18T06:09:03.401Z,4.91
2023-01-18T06:11:29.984Z,5.16
2023-01-18T06:13:56.572Z,5.28
2023-01-18T06:16:24.604Z,5.67
2023-01-18T06:18:51.288Z,5.12
2023-01-18T06:21:18.009Z,5.33
2023-01-18T06:23:44.760Z,5.57
2023-01-18T06:26:11.525Z,5.77
2023-01-18T06:28:38.135Z,5.64
2023-01-18T06:31:05.490Z,6.14
2023-01-18T06:33:32.044Z,6.09
2023-01-18T06:35:58.627Z,6.16
2023-01-18T06:38:25.294Z,6.23
2023-01-18T06:40:51.875Z,6.42
2023-01-18T06:43:18.599Z,6.65
2023-01-18T06:45:52.390Z,6.58
2023-01-18T06:48:19.056Z,6.82
2023-01-18T06:50:45.615Z,6.86
2023-01-18T06:53:12.210Z,7.00
2023-01-18T06:55:38.777Z,7.25
2023-01-18T06:58:05.413Z,7.28
2023-01-18T07:00:32.254Z,7.55
2023-01-18T07:02:59.256Z,7.71
2023-01-18T07:05:26.125Z,8.02
2023-01-18T07:07:52.720Z,8.24
2023-01-18T07:10:19.425Z,7.77
2023-01-18T07:12:48.811Z,8.93
2023-01-18T07:15:22.047Z,9.35
2023-01-18T07:17:50.433Z,9.82
2023-01-18T07:20:17.329Z,10.31
2023-01-18T07:22:44.049Z,10.22
2023-01-18T07:25:13.777Z,10.91
2023-01-18T07:27:43.744Z,11.06
2023-01-18T07:30:13.812Z,10.76
2023-01-18T07:32:45.215Z,10.89
2023-01-18T07:35:13.106Z,11.27
2023-01-18T07:37:39.735Z,11.54
2023-01-18T07:40:08.748Z,11.73
2023-01-18T07:42:35.350Z,12.12
2023-01-18T07:45:02.022Z,12.41
2023-01-18T07:47:28.605Z,12.70
2023-01-18T07:49:55.181Z,13.07
2023-01-18T07:52:21.727Z,12.98
2023-01-18T07:54:48.389Z,13.47
2023-01-18T07:57:15.019Z,13.72
2023-01-18T07:59:41.637Z,13.87
2023-01-18T08:02:12.565Z,14.02
2023-01-18T08:04:39.639Z,14.19
2023-01-18T08:07:06.308Z,14.37
2023-01-18T08:09:35.428Z,14.53
2023-01-18T08:12:02.548Z,14.67
2023-01-18T08:14:29.231Z,14.68
2023-01-18T08:16:55.879Z,14.69
2023-01-18T08:19:22.537Z,15.01
2023-01-18T08:21:49.126Z,15.00
2023-01-18T08:24:15.707Z,15.35
2023-01-18T08:26:42.300Z,15.14
2023-01-18T08:29:08.894Z,15.80
2023-01-18T08:31:35.515Z,15.96
2023-01-18T08:34:02.527Z,13.70
2023-01-18T08:36:29.775Z,15.04
2023-01-18T08:38:59.448Z,16.32
2023-01-18T08:41:31.016Z,16.13
2023-01-18T08:43:59.220Z,16.28
2023-01-18T08:46:26.138Z,16.51
2023-01-18T08:48:54.444Z,16.28
2023-01-18T08:51:23.050Z,16.42
2023-01-18T08:53:51.678Z,16.51
2023-01-18T08:56:19.555Z,16.52
2023-01-18T08:58:47.371Z,16.58
2023-01-18T09:01:14.247Z,16.91
2023-01-18T09:03:42.118Z,17.27
2023-01-18T09:06:12.519Z,16.86
2023-01-18T09:08:39.904Z,17.44
2023-01-18T09:11:08.918Z,16.93
2023-01-18T09:13:36.085Z,17.67
2023-01-18T09:16:05.313Z,17.65
2023-01-18T09:18:31.915Z,17.66
2023-01-18T09:20:58.666Z,17.79
2023-01-18T09:23:25.706Z,17.61
2023-01-18T09:26:07.528Z,17.99
2023-01-18T09:28:34.342Z,17.68
2023-01-18T09:31:08.811Z,18.19
2023-01-18T09:33:38.247Z,18.21
2023-01-18T09:36:10.154Z,18.10
2023-01-18T09:38:38.380Z,17.93
2023-01-18T09:41:25.887Z,18.36
2023-01-18T09:43:56.401Z,18.17
2023-01-18T09:46:26.903Z,18.23
2023-01-18T09:48:59.482Z,18.06
2023-01-18T09:51:40.616Z,18.55
2023-01-18T09:54:52.894Z,18.76
2023-01-18T09:57:32.105Z,18.79
2023-01-18T10:00:00.894Z,18.61
2023-01-18T10:02:40.467Z,18.77
2023-01-18T10:05:17.981Z,18.72
2023-01-18T10:08:02.356Z,18.39
2023-01-18T10:11:04.505Z,18.51
2023-01-18T10:13:53.464Z,18.55
2023-01-18T10:16:20.795Z,18.54
2023-01-18T10:18:51.622Z,18.72
2023-01-18T10:21:30.725Z,18.78
2023-01-18T10:24:13.913Z,18.63
2023-01-18T10:26:41.607Z,17.93
2023-01-18T10:29:35.469Z,18.41
2023-01-18T10:32:09.175Z,18.32
2023-01-18T10:34:39.065Z,18.63
2023-01-18T10:37:15.228Z,18.75
2023-01-18T10:39:57.584Z,18.99
2023-01-18T10:42:51.116Z,19.10
2023-01-18T10:45:25.628Z,19.46
2023-01-18T10:47:54.036Z,19.43
2023-01-18T10:50:38.716Z,19.87
2023-01-18T10:53:23.440Z,20.06
2023-01-18T10:56:19.767Z,20.11
2023-01-18T10:58:57.833Z,20.13
2023-01-18T11:01:36.320Z,19.58
2023-01-18T11:04:06.790Z,19.70
2023-01-18T11:06:51.911Z,19.66
2023-01-18T11:09:37.214Z,20.34
2023-01-18T11:12:34.127Z,20.29
2023-01-18T11:15:15.776Z,20.19
2023-01-18T11:17:43.316Z,20.29
2023-01-18T11:20:23.328Z,20.57
2023-01-18T11:22:59.176Z,20.70
2023-01-18T11:25:38.662Z,20.62
2023-01-18T11:28:16.129Z,19.83
2023-01-18T11:31:07.496Z,20.50
2023-01-18T11:33:34.425Z,20.17
2023-01-18T11:36:03.002Z,20.60
2023-01-18T11:38:32.634Z,20.51
2023-01-18T11:41:17.909Z,20.22
2023-01-18T11:44:18.822Z,20.26
2023-01-18T11:46:50.899Z,18.62
2023-01-18T11:49:43.725Z,20.08
2023-01-18T11:52:24.096Z,19.65
2023-01-18T11:54:55.912Z,19.73
2023-01-18T11:57:22.468Z,19.54
2023-01-18T11:59:49.280Z,19.11
2023-01-18T12:02:38.610Z,19.50
2023-01-18T12:05:25.635Z,19.55
2023-01-18T12:08:07.679Z,19.35
2023-01-18T12:10:43.574Z,19.25
2023-01-18T12:13:33.863Z,18.98
2023-01-18T12:16:08.320Z,18.85
2023-01-18T12:19:11.789Z,18.74
2023-01-18T12:21:53.417Z,18.54
2023-01-18T12:24:38.522Z,18.55
2023-01-18T12:27:40.452Z,18.53
2023-01-18T12:30:43.166Z,18.64
2023-01-18T12:33:18.583Z,18.67
2023-01-18T12:36:10.546Z,18.32
2023-01-18T12:38:45.485Z,18.44
2023-01-18T12:41:40.856Z,18.38
2023-01-18T12:44:17.172Z,18.39
2023-01-18T12:46:43.785Z,18.39
2023-01-18T12:49:21.523Z,18.12
2023-01-18T12:51:53.081Z,18.23
2023-01-18T12:54:28.037Z,18.09
2023-01-18T12:56:57.219Z,17.99
2023-01-18T12:59:37.105Z,17.60
2023-01-18T13:02:25.211Z,17.98
2023-01-18T13:04:57.192Z,17.86
2023-01-18T13:07:33.092Z,17.82
2023-01-18T13:10:00.673Z,17.73
2023-01-18T13:12:28.425Z,17.79
2023-01-18T13:15:15.389Z,17.80
2023-01-18T13:17:57.152Z,17.45
2023-01-18T13:20:57.919Z,17.68
2023-01-18T13:23:56.425Z,17.62
2023-01-18T13:26:28.737Z,17.59
2023-01-18T13:29:14.027Z,17.59
2023-01-18T13:31:40.745Z,16.91
2023-01-18T13:34:26.059Z,17.53
2023-01-18T13:37:02.522Z,17.46
2023-01-18T13:39:47.212Z,17.54
2023-01-18T13:42:13.733Z,17.61
2023-01-18T13:44:47.185Z,17.51
2023-01-18T13:47:35.576Z,17.70
2023-01-18T13:50:02.527Z,17.51
2023-01-18T13:52:34.055Z,16.90
2023-01-18T13:55:04.126Z,17.71
2023-01-18T13:57:32.947Z,17.69
2023-01-18T14:00:01.363Z,17.38
2023-01-18T14:02:42.146Z,17.53
2023-01-18T14:05:20.078Z,16.91
2023-01-18T14:07:51.925Z,16.94
2023-01-18T14:10:33.371Z,17.32
2023-01-18T14:13:03.587Z,17.19
2023-01-18T14:15:42.462Z,17.15
2023-01-18T14:18:16.805Z,16.66
2023-01-18T14:21:03.593Z,16.80
2023-01-18T14:23:55.850Z,16.49
2023-01-18T14:26:27.920Z,16.42
2023-01-18T14:29:00.343Z,16.50
2023-01-18T14:31:42.493Z,16.07
2023-01-18T14:34:24.228Z,16.25
2023-01-18T14:36:51.325Z,16.24
2023-01-18T14:39:18.080Z,16.20
2023-01-18T14:41:47.548Z,16.19
2023-01-18T14:44:20.717Z,15.55
2023-01-18T14:46:52.922Z,16.10
2023-01-18T14:49:29.722Z,15.90
2023-01-18T14:51:56.987Z,15.85
2023-01-18T14:54:24.961Z,14.90
2023-01-18T14:57:00.111Z,15.74
2023-01-18T14:59:30.749Z,15.71
2023-01-18T15:02:19.016Z,15.63
2023-01-18T15:04:47.448Z,15.61
2023-01-18T15:07:24.022Z,15.26
2023-01-18T15:09:50.897Z,15.37
2023-01-18T15:12:24.131Z,15.39
2023-01-18T15:14:51.385Z,14.98
2023-01-18T15:17:22.578Z,15.26
2023-01-18T15:20:02.592Z,14.91
2023-01-18T15:22:36.602Z,15.23
2023-01-18T15:25:04.167Z,14.73
2023-01-18T15:27:34.116Z,14.81
2023-01-18T15:30:02.197Z,14.84
2023-01-18T15:32:36.675Z,14.86
2023-01-18T15:35:04.056Z,14.57
2023-01-18T15:37:36.574Z,14.96
2023-01-18T15:40:12.253Z,14.90
2023-01-18T15:42:46.281Z,14.81
2023-01-18T15:45:25.476Z,14.78
2023-01-18T15:47:54.549Z,14.68
2023-01-18T15:50:24.221Z,14.33
2023-01-18T15:53:02.162Z,14.28
2023-01-18T15:55:53.290Z,14.44
2023-01-18T15:58:29.796Z,14.53
2023-01-18T16:01:24.849Z,14.26
2023-01-18T16:03:51.449Z,14.35
2023-01-18T16:06:40.337Z,14.24
2023-01-18T16:09:12.153Z,14.28
2023-01-18T16:11:39.778Z,14.22
2023-01-18T16:14:20.209Z,14.17
2023-01-18T16:16:47.389Z,14.12
2023-01-18T16:19:36.029Z,14.20
2023-01-18T16:22:06.726Z,14.18
2023-01-18T16:24:37.629Z,13.33
2023-01-18T16:27:15.509Z,14.01
2023-01-18T16:29:45.309Z,13.87
2023-01-18T16:32:30.231Z,13.89
2023-01-18T16:34:59.974Z,13.81
2023-01-18T16:37:27.338Z,13.85
2023-01-18T16:39:57.028Z,13.77
2023-01-18T16:42:36.974Z,13.80
2023-01-18T16:45:04.764Z,13.85
2023-01-18T16:47:31.444Z,13.82
2023-01-18T16:49:59.427Z,13.90
2023-01-18T16:52:27.330Z,13.48
2023-01-18T16:54:53.928Z,13.84
2023-01-18T16:57:22.783Z,13.92
2023-01-18T16:59:50.540Z,13.79
2023-01-18T17:02:17.284Z,13.86
2023-01-18T17:04:45.409Z,13.90
2023-01-18T17:07:12.281Z,13.64
2023-01-18T17:09:48.038Z,13.89
2023-01-18T17:12:15.703Z,13.79
2023-01-18T17:14:42.412Z,13.61
2023-01-18T17:17:10.363Z,13.48
2023-01-18T17:19:37.949Z,13.59
2023-01-18T17:22:05.052Z,13.69
2023-01-18T17:24:31.758Z,13.62
2023-01-18T17:26:58.351Z,13.41
2023-01-18T17:29:25.128Z,13.41
2023-01-18T17:31:53.056Z,13.29
2023-01-18T17:34:29.248Z,13.63
2023-01-18T17:36:58.418Z,13.93
2023-01-18T17:39:32.146Z,13.89
2023-01-18T17:42:14.355Z,13.81
2023-01-18T17:44:43.585Z,13.47
2023-01-18T17:47:10.838Z,13.84
2023-01-18T17:49:37.457Z,13.77
2023-01-18T17:52:04.359Z,13.62
2023-01-18T17:54:31.437Z,13.47
2023-01-18T17:56:58.188Z,13.56
2023-01-18T17:59:25.134Z,13.63
2023-01-18T18:01:52.258Z,13.60
2023-01-18T18:04:19.247Z,13.41
2023-01-18T18:06:53.765Z,13.51
2023-01-18T18:09:21.130Z,13.32
2023-01-18T18:11:48.116Z,12.34
2023-01-18T18:14:14.849Z,13.31
2023-01-18T18:16:43.809Z,12.94
2023-01-18T18:19:14.980Z,12.83
2023-01-18T18:21:43.132Z,12.72
2023-01-18T18:24:09.954Z,12.57
2023-01-18T18:26:36.857Z,12.36
2023-01-18T18:29:03.684Z,12.44
2023-01-18T18:31:30.482Z,12.36
2023-01-18T18:33:57.488Z,12.23
2023-01-18T18:36:27.600Z,12.25
2023-01-18T18:38:54.542Z,12.33
2023-01-18T18:41:21.438Z,10.33
2023-01-18T18:43:48.355Z,11.79
2023-01-18T18:46:15.243Z,11.57
2023-01-18T18:48:42.755Z,12.23
2023-01-18T18:51:10.146Z,12.33
2023-01-18T18:53:40.671Z,12.53
2023-01-18T18:56:10.420Z,12.69
2023-01-18T18:58:38.427Z,12.85
2023-01-18T19:01:06.287Z,12.98
2023-01-18T19:03:34.913Z,13.05
2023-01-18T19:06:01.992Z,12.93
2023-01-18T19:08:28.815Z,13.07
2023-01-18T19:10:57.312Z,12.68
2023-01-18T19:13:24.102Z,13.06
2023-01-18T19:15:51.608Z,13.10
2023-01-18T19:18:18.483Z,12.97
2023-01-18T19:20:45.268Z,13.00
2023-01-18T19:23:12.139Z,12.91
2023-01-18T19:25:39.263Z,12.41
2023-01-18T19:28:06.015Z,12.67
2023-01-18T19:30:33.484Z,12.29
2023-01-18T19:33:00.915Z,12.20
2023-01-18T19:35:27.701Z,12.19
2023-01-18T19:37:55.340Z,12.06
2023-01-18T19:40:22.170Z,11.85
2023-01-18T19:42:54.940Z,11.61
2023-01-18T19:45:28.231Z,11.07
2023-01-18T19:47:57.828Z,11.75
2023-01-18T19:50:25.370Z,11.75
2023-01-18T19:52:52.503Z,11.76
2023-01-18T19:55:20.362Z,11.72
2023-01-18T19:57:47.338Z,11.63
2023-01-18T20:00:16.872Z,11.81
2023-01-18T20:02:46.823Z,11.70
2023-01-18T20:05:13.759Z,11.61
2023-01-18T20:07:41.045Z,11.53
2023-01-18T20:10:08.443Z,11.50
2023-01-18T20:12:35.251Z,11.04
2023-01-18T20:15:02.256Z,11.30
2023-01-18T20:17:30.072Z,11.03
2023-01-18T20:19:56.802Z,11.23
2023-01-18T20:22:24.308Z,11.21
2023-01-18T20:24:52.934Z,11.22
2023-01-18T20:27:19.997Z,11.13
2023-01-18T20:29:46.752Z,11.14
2023-01-18T20:32:16.721Z,10.72
2023-01-18T20:34:45.453Z,10.94
2023-01-18T20:37:15.925Z,10.73
2023-01-18T20:39:42.801Z,10.93
2023-01-18T20:42:09.861Z,10.93
2023-01-18T20:44:36.897Z,10.52
2023-01-18T20:47:04.051Z,10.19
2023-01-18T20:49:37.785Z,10.70
2023-01-18T20:52:07.109Z,10.69
2023-01-18T20:54:36.258Z,10.19
2023-01-18T20:57:04.683Z,10.82
2023-01-18T20:59:31.451Z,10.80
2023-01-18T21:01:58.343Z,10.82
2023-01-18T21:04:25.648Z,10.84
2023-01-18T21:06:52.361Z,10.76
2023-01-18T21:09:19.061Z,10.63
2023-01-18T21:11:45.712Z,10.86
2023-01-18T21:14:12.816Z,10.91
2023-01-18T21:16:39.651Z,11.05
2023-01-18T21:19:06.308Z,11.11
2023-01-18T21:21:32.977Z,10.90
2023-01-18T21:24:00.159Z,10.90
2023-01-18T21:26:26.981Z,11.08
2023-01-18T21:28:54.359Z,11.13
2023-01-18T21:31:21.929Z,11.06
2023-01-18T21:33:49.071Z,11.25
2023-01-18T21:36:17.787Z,11.17
2023-01-18T21:38:44.550Z,11.22
2023-01-18T21:41:30.310Z,11.23
2023-01-18T21:44:15.560Z,11.18
2023-01-18T21:46:46.643Z,10.48
2023-01-18T21:49:47.445Z,11.25
2023-01-18T21:52:37.639Z,11.31
2023-01-18T21:55:04.485Z,11.31
2023-01-18T21:57:31.157Z,10.97
2023-01-18T21:59:57.789Z,11.20
2023-01-18T22:02:24.616Z,11.23
2023-01-18T22:05:00.344Z,11.26
2023-01-18T22:07:32.775Z,11.21
2023-01-18T22:10:05.039Z,11.31
2023-01-18T22:12:35.085Z,11.23
2023-01-18T22:15:03.116Z,11.20
2023-01-18T22:17:29.924Z,10.78
2023-01-18T22:19:56.655Z,11.19
2023-01-18T22:22:23.313Z,11.17
2023-01-18T22:24:49.908Z,11.00
2023-01-18T22:27:16.478Z,10.91
2023-01-18T22:29:43.122Z,10.44
2023-01-18T22:32:09.856Z,9.93
2023-01-18T22:34:36.507Z,10.17
2023-01-18T22:37:03.574Z,10.19
2023-01-18T22:39:30.187Z,9.86
2023-01-18T22:41:56.855Z,10.15
2023-01-18T22:44:23.554Z,9.98
2023-01-18T22:46:50.163Z,9.79
2023-01-18T22:49:16.811Z,10.09
2023-01-18T22:51:43.706Z,9.71
2023-01-18T22:54:10.405Z,10.01
2023-01-18T22:56:36.965Z,10.02
2023-01-18T22:59:03.516Z,10.07
2023-01-18T23:01:32.977Z,10.11
2023-01-18T23:04:02.309Z,8.27
2023-01-18T23:06:34.756Z,10.15
2023-01-18T23:09:01.478Z,10.11
2023-01-18T23:11:29.837Z,10.07
2023-01-18T23:14:16.434Z,9.58
2023-01-18T23:17:02.781Z,10.15
2023-01-18T23:19:30.929Z,10.07
2023-01-18T23:21:57.956Z,9.77
2023-01-18T23:24:25.208Z,9.38
2023-01-18T23:26:52.180Z,9.88
2023-01-18T23:29:20.043Z,9.85
2023-01-18T23:31:46.903Z,9.84
2023-01-18T23:34:13.604Z,9.80
2023-01-18T23:36:40.234Z,9.54
2023-01-18T23:39:25.827Z,9.72
2023-01-18T23:42:10.909Z,9.48
2023-01-18T23:44:56.317Z,9.66
2023-01-18T23:47:41.320Z,9.27
2023-01-18T23:50:27.227Z,9.04
2023-01-18T23:53:12.238Z,8.82
2023-01-18T23:55:38.831Z,9.45
2023-01-18T23:58:05.432Z,9.38
